Weather History for Idabel, OK

Change the Weather History Date:

Saturday, November 16, 2013

  Actual Average (KDEQ) Record (KDEQ)
Temperature  
Mean Temperature 63 °F 52 °F  
Max Temperature 71 °F 65 °F 82 °F (1938)
Min Temperature 55 °F 39 °F 19 °F (1970)
Degree Days  
Heating Degree Days 2 13  
Month to date heating degree days 163  
Since 1 July heating degree days 296  
Cooling Degree Days 0 0  
Month to date cooling degree days 5  
Year to date cooling degree days 1939  
Growing Degree Days 13 (Base 50)    
Moisture  
Dew Point 60 °F    
Average Humidity 89    
Maximum Humidity 100    
Minimum Humidity 73    
Precipitation  
Precipitation 0.00 in 0.18 in 6.50 in (1978)
Month to date precipitation 2.74  
Year to date precipitation 42.46  
Snow  
Snow 0.00 in - - ()
Month to date snowfall  
Since 1 July snowfall  
Since 1 September snowfall  
Snow Depth -    
Sea Level Pressure  
Sea Level Pressure 29.83 in    
Wind  
Wind Speed 8 mph (SE)    
Max Wind Speed 17 mph    
Max Gust Speed 24 mph    
Visibility 8 miles    
Events      
T = Trace of Precipitation, MM = Missing Value Source: NWS Daily Summary

Daily Weather History Graph

Daily Weather History Graph

Search for Another Location

Airport:

Trip Planner

Search our weather history database for the weather conditions in past years. The results will help you decide how hot, cold, wet, or windy it might be!

Date:

Astronomy

Nov. 16, 2013 Rise Set
Actual Time 6:52 AM CST 5:15 PM CST
Civil Twilight 6:26 AM CST 5:41 PM CST
Nautical Twilight 5:56 AM CST 6:12 PM CST
Astronomical Twilight 5:26 AM CST 6:41 PM CST
Moon 4:49 PM CST (11/16) 5:52 AM CST (11/16)
Length of Visible Light 11h 15m
Length of Day
10h 22m
Waxing Gibbous, 99% of the Moon is Illuminated
Nov 16
Waxing Gibbous
Nov 17
Full
Nov 25
Last Quarter
Dec 2
New
Dec 9
First Quarter

Hourly Weather History & Observations

Time (CST) Temp. Dew Point Humidity Pressure Visibility Wind Dir Wind Speed Gust Speed Precip Events Conditions
12:15 AM 55.4 °F 53.6 °F 94% 29.94 in 2.0 mi East 5.8 mph - N/A   Overcast
12:35 AM 55.4 °F 53.6 °F 94% 29.93 in 2.5 mi East 6.9 mph - N/A   Mostly Cloudy
12:55 AM 55.4 °F 53.6 °F 94% 29.93 in 2.0 mi East 5.8 mph - N/A   Overcast
1:15 AM 55.4 °F 53.6 °F 94% 29.92 in 2.0 mi East 6.9 mph - N/A   Overcast
1:35 AM 55.4 °F 55.4 °F 100% 29.92 in 3.0 mi ESE 5.8 mph - N/A   Mostly Cloudy
1:55 AM 55.4 °F 55.4 °F 100% 29.92 in 3.0 mi East 4.6 mph - N/A   Mostly Cloudy
2:15 AM 55.4 °F 55.4 °F 100% 29.92 in 3.0 mi East 4.6 mph - N/A   Overcast
2:35 AM 55.4 °F 55.4 °F 100% 29.91 in 3.0 mi East 5.8 mph - N/A   Overcast
2:55 AM 55.4 °F 55.4 °F 100% 29.91 in 3.0 mi East 5.8 mph - N/A   Overcast
3:15 AM 57.2 °F 55.4 °F 94% 29.90 in 4.0 mi ESE 5.8 mph - N/A   Mostly Cloudy
3:35 AM 59.0 °F 55.4 °F 88% 29.90 in 7.0 mi SE 6.9 mph - N/A   Overcast
3:55 AM 59.0 °F 57.2 °F 94% 29.90 in 5.0 mi ESE 4.6 mph - N/A   Overcast
4:15 AM 59.0 °F 57.2 °F 94% 29.90 in 7.0 mi ESE 5.8 mph - N/A   Overcast
4:35 AM 59.0 °F 57.2 °F 94% 29.89 in 7.0 mi SE 4.6 mph - N/A   Overcast
4:55 AM 59.0 °F 57.2 °F 94% 29.89 in 7.0 mi SE 4.6 mph - N/A   Overcast
5:15 AM 59.0 °F 57.2 °F 94% 29.89 in 7.0 mi SE 4.6 mph - N/A   Overcast
5:35 AM 59.0 °F 59.0 °F 100% 29.89 in 7.0 mi SSE 4.6 mph - N/A   Overcast
5:55 AM 59.0 °F 59.0 °F 100% 29.90 in 5.0 mi SE 5.8 mph - N/A   Overcast
6:15 AM 59.0 °F 57.2 °F 94% 29.90 in 3.0 mi SE 5.8 mph - N/A   Overcast
6:35 AM 59.0 °F 57.2 °F 94% 29.89 in 2.5 mi SE 8.1 mph - N/A   Overcast
6:55 AM 59.0 °F 57.2 °F 94% 29.90 in 4.0 mi SE 8.1 mph - N/A   Overcast
7:15 AM 59.0 °F 57.2 °F 94% 29.89 in 5.0 mi ESE 9.2 mph - N/A   Overcast
7:35 AM 59.0 °F 57.2 °F 94% 29.89 in 5.0 mi ESE 11.5 mph - N/A   Overcast
7:55 AM 59.0 °F 57.2 °F 94% 29.90 in 5.0 mi SE 8.1 mph - N/A   Overcast
8:15 AM 59.0 °F 57.2 °F 94% 29.90 in 5.0 mi SE 6.9 mph - N/A   Overcast
8:35 AM 59.0 °F 59.0 °F 100% 29.90 in 7.0 mi ESE 8.1 mph - N/A   Overcast
8:55 AM 60.8 °F 59.0 °F 94% 29.91 in 7.0 mi SE 6.9 mph - N/A   Overcast
9:15 AM 60.8 °F 59.0 °F 94% 29.91 in 7.0 mi ESE 9.2 mph - N/A   Overcast
9:35 AM 60.8 °F 59.0 °F 94% 29.92 in 7.0 mi SE 6.9 mph - N/A   Overcast
9:55 AM 60.8 °F 57.2 °F 88% 29.91 in 10.0 mi ESE 6.9 mph - N/A   Overcast
10:15 AM 60.8 °F 57.2 °F 88% 29.92 in 10.0 mi East 6.9 mph - N/A   Overcast
10:35 AM 60.8 °F 59.0 °F 94% 29.91 in 10.0 mi ESE 8.1 mph - N/A   Overcast
10:55 AM 60.8 °F 59.0 °F 94% 29.90 in 10.0 mi ESE 9.2 mph - N/A   Overcast
11:15 AM 60.8 °F 59.0 °F 94% 29.89 in 10.0 mi SE 6.9 mph - N/A   Overcast
11:35 AM 62.6 °F 59.0 °F 88% 29.88 in 10.0 mi ESE 8.1 mph - N/A   Overcast
11:55 AM 62.6 °F 59.0 °F 88% 29.86 in 10.0 mi ESE 11.5 mph - N/A   Overcast
12:15 PM 64.4 °F 59.0 °F 83% 29.85 in 10.0 mi SE 5.8 mph - N/A   Mostly Cloudy
12:35 PM 64.4 °F 59.0 °F 83% 29.82 in 10.0 mi SE 10.4 mph - N/A   Mostly Cloudy
12:55 PM 66.2 °F 59.0 °F 78% 29.82 in 10.0 mi SE 9.2 mph - N/A   Scattered Clouds
1:15 PM 68.0 °F 60.8 °F 78% 29.80 in 10.0 mi SSE 9.2 mph 16.1 mph N/A   Scattered Clouds
1:35 PM 69.8 °F 60.8 °F 73% 29.79 in 10.0 mi SSE 11.5 mph 17.3 mph N/A   Scattered Clouds
1:55 PM 69.8 °F 60.8 °F 73% 29.78 in 10.0 mi SSE 10.4 mph - N/A   Mostly Cloudy
2:15 PM 68.0 °F 60.8 °F 78% 29.77 in 10.0 mi SE 10.4 mph - N/A   Mostly Cloudy
2:35 PM 68.0 °F 60.8 °F 78% 29.76 in 10.0 mi SSE 10.4 mph 16.1 mph N/A   Mostly Cloudy
2:55 PM 68.0 °F 60.8 °F 78% 29.75 in 10.0 mi SE 10.4 mph - N/A   Mostly Cloudy
3:15 PM 68.0 °F 60.8 °F 78% 29.75 in 10.0 mi SE 8.1 mph - N/A   Overcast
3:35 PM 68.0 °F 60.8 °F 78% 29.76 in 10.0 mi SE 6.9 mph - N/A   Overcast
3:55 PM 68.0 °F 60.8 °F 78% 29.75 in 10.0 mi ESE 9.2 mph - N/A   Overcast
4:15 PM 68.0 °F 60.8 °F 78% 29.74 in 10.0 mi SE 8.1 mph - N/A   Mostly Cloudy
4:35 PM 68.0 °F 60.8 °F 78% 29.76 in 10.0 mi SSE 8.1 mph - N/A   Overcast
4:55 PM 68.0 °F 62.6 °F 83% 29.75 in 10.0 mi SE 6.9 mph - N/A   Overcast
5:15 PM 68.0 °F 62.6 °F 83% 29.76 in 10.0 mi SE 5.8 mph - N/A   Overcast
5:35 PM 68.0 °F 62.6 °F 83% 29.75 in 10.0 mi SE 8.1 mph - N/A   Overcast
5:55 PM 66.2 °F 62.6 °F 88% 29.74 in 10.0 mi SE 10.4 mph - N/A   Overcast
6:15 PM 66.2 °F 62.6 °F 88% 29.75 in - SE 9.2 mph - N/A   Overcast
6:35 PM 66.2 °F 62.6 °F 88% 29.75 in - SE 9.2 mph - N/A   Mostly Cloudy
6:55 PM 66.2 °F 62.6 °F 88% 29.75 in 7.0 mi SE 9.2 mph - N/A   Mostly Cloudy
7:15 PM 68.0 °F 64.4 °F 88% 29.74 in 7.0 mi SSE 12.7 mph 16.1 mph N/A   Mostly Cloudy
7:35 PM 68.0 °F 64.4 °F 88% 29.74 in 10.0 mi SSE 12.7 mph - N/A   Overcast
7:55 PM 68.0 °F 64.4 °F 88% 29.74 in 10.0 mi SSE 11.5 mph - N/A   Overcast
8:15 PM 68.0 °F 64.4 °F 88% 29.74 in 10.0 mi SSE 15.0 mph - N/A   Overcast
8:35 PM 69.8 °F 64.4 °F 83% 29.74 in 10.0 mi SSE 13.8 mph - N/A   Mostly Cloudy
8:55 PM 69.8 °F 64.4 °F 83% 29.74 in 10.0 mi SSE 10.4 mph - N/A   Overcast
9:15 PM 69.8 °F 66.2 °F 88% 29.74 in 10.0 mi South 11.5 mph 17.3 mph N/A   Overcast
9:35 PM 69.8 °F 66.2 °F 88% 29.75 in 10.0 mi South 12.7 mph - N/A   Overcast
9:55 PM 69.8 °F 66.2 °F 88% 29.75 in 10.0 mi South 13.8 mph 20.7 mph N/A   Overcast
10:15 PM 71.6 °F 66.2 °F 83% 29.74 in 10.0 mi South 17.3 mph 21.9 mph N/A   Overcast
10:35 PM 71.6 °F 66.2 °F 83% 29.74 in 10.0 mi South 12.7 mph 20.7 mph N/A   Overcast
10:55 PM 71.6 °F 66.2 °F 83% 29.74 in 10.0 mi South 16.1 mph 23.0 mph N/A   Overcast
11:15 PM 71.6 °F 66.2 °F 83% 29.74 in 10.0 mi South 17.3 mph 21.9 mph N/A   Overcast
11:35 PM 71.6 °F 66.2 °F 83% 29.74 in 10.0 mi South 13.8 mph 21.9 mph N/A   Overcast
11:55 PM 71.6 °F 66.2 °F 83% 29.74 in 10.0 mi South 15.0 mph 24.2 mph N/A   Overcast